Time;durP1;ratioP1;P1;durP2;ratioP2;P2;SDS_P1;SDS_P2;PMS_P1;PMS_P2;Temp;Humidity;BMP_temperature;BMP_pressure;BME280_temperature;BME280_humidity;BME280_pressure;Samples;Min_cycle;Max_cycle;Signal;HPM_P1;HPM_P2
2023/12/24 00:01:32;;;;;;;9.00;2.67;;;9.80;99.90;;;;;;5033372;28;20518;-73
2023/12/24 00:03:59;;;;;;;4.77;1.80;;;9.90;99.90;;;;;;5037222;28;20891;-72
2023/12/24 00:06:26;;;;;;;5.20;1.57;;;9.90;99.90;;;;;;5044288;28;20602;-71
2023/12/24 00:08:53;;;;;;;2.03;1.70;;;9.80;99.90;;;;;;5038194;28;20559;-73
2023/12/24 00:11:19;;;;;;;3.60;2.90;;;9.80;99.90;;;;;;5050919;28;20849;-73
2023/12/24 00:13:46;;;;;;;3.17;2.13;;;9.80;99.90;;;;;;5029858;28;20591;-73
2023/12/24 00:16:13;;;;;;;6.10;2.43;;;9.80;99.90;;;;;;5030591;28;20569;-75
2023/12/24 00:18:41;;;;;;;2.57;2.07;;;9.80;99.90;;;;;;5033651;28;20528;-74
2023/12/24 00:21:08;;;;;;;7.33;3.20;;;9.80;99.90;;;;;;5020843;28;20574;-75
2023/12/24 00:23:35;;;;;;;15.73;3.20;;;9.80;99.90;;;;;;5054314;28;20486;-72
2023/12/24 00:26:02;;;;;;;5.93;2.57;;;9.80;99.90;;;;;;5051082;28;20515;-74
2023/12/24 00:28:28;;;;;;;4.30;1.77;;;9.80;99.90;;;;;;5030851;28;20567;-74
2023/12/24 00:30:55;;;;;;;3.80;2.03;;;9.80;99.90;;;;;;5050704;28;20557;-73
2023/12/24 00:33:22;;;;;;;9.23;2.07;;;9.90;99.90;;;;;;5020092;28;20500;-74
2023/12/24 00:35:50;;;;;;;13.97;3.03;;;9.80;99.90;;;;;;5049935;28;20506;-70
2023/12/24 00:38:17;;;;;;;3.10;2.13;;;9.70;99.90;;;;;;5045540;28;20990;-73
2023/12/24 00:40:44;;;;;;;3.07;2.63;;;9.70;99.90;;;;;;5027095;28;21294;-74
2023/12/24 00:43:11;;;;;;;2.60;2.10;;;9.80;99.90;;;;;;5044290;28;20979;-73
2023/12/24 00:45:37;;;;;;;6.73;2.47;;;9.80;99.90;;;;;;5050898;28;20508;-74
2023/12/24 00:48:04;;;;;;;8.70;4.53;;;9.80;99.90;;;;;;5005370;28;20568;-71
2023/12/24 00:50:31;;;;;;;6.70;1.90;;;9.70;99.90;;;;;;5041273;28;20638;-69
2023/12/24 00:52:59;;;;;;;1.93;1.10;;;9.70;99.90;;;;;;5056903;28;20595;-75
2023/12/24 00:55:26;;;;;;;8.60;1.73;;;9.60;99.90;;;;;;5019079;28;20658;-73
2023/12/24 00:57:53;;;;;;;3.40;2.37;;;9.60;99.90;;;;;;5036064;28;20881;-75
2023/12/24 01:00:20;;;;;;;4.70;1.73;;;9.60;99.90;;;;;;5015775;28;20948;-71
2023/12/24 01:02:47;;;;;;;4.40;2.43;;;9.50;99.90;;;;;;5031805;28;20551;-74
2023/12/24 01:05:14;;;;;;;3.07;1.53;;;9.50;99.90;;;;;;5010235;28;20574;-74
2023/12/24 01:07:41;;;;;;;7.33;2.43;;;9.50;99.90;;;;;;5039312;28;20554;-72
2023/12/24 01:10:10;;;;;;;7.30;1.93;;;9.60;99.90;;;;;;4997415;28;20507;-71
2023/12/24 01:12:37;;;;;;;3.03;1.90;;;9.50;99.90;;;;;;5066610;28;20475;-71
2023/12/24 01:15:04;;;;;;;2.87;2.17;;;9.50;99.90;;;;;;5053467;28;20962;-72
2023/12/24 01:17:31;;;;;;;2.10;1.60;;;9.50;99.90;;;;;;5038435;28;20570;-75
2023/12/24 01:19:58;;;;;;;4.00;1.90;;;9.50;99.90;;;;;;5061948;28;20559;-74
2023/12/24 01:22:25;;;;;;;3.50;1.63;;;9.50;99.90;;;;;;5056632;28;21399;-77
2023/12/24 01:24:52;;;;;;;2.20;2.00;;;9.40;99.90;;;;;;5032174;28;21555;-77
2023/12/24 01:27:20;;;;;;;3.43;1.70;;;9.30;99.90;;;;;;5008581;28;20776;-73
2023/12/24 01:29:48;;;;;;;18.43;3.23;;;9.30;99.90;;;;;;5028365;28;20927;-74
2023/12/24 01:32:14;;;;;;;3.23;1.97;;;9.30;99.90;;;;;;5013119;28;20902;-75
2023/12/24 01:34:41;;;;;;;12.53;2.13;;;9.30;99.90;;;;;;5030294;28;21353;-74
2023/12/24 01:37:08;;;;;;;2.53;1.87;;;9.30;99.90;;;;;;5036213;28;21013;-71
2023/12/24 01:39:35;;;;;;;1.77;1.27;;;9.40;99.90;;;;;;5062599;28;20475;-76
2023/12/24 01:42:02;;;;;;;2.13;1.27;;;9.40;99.90;;;;;;5053028;28;20908;-70
2023/12/24 01:44:30;;;;;;;3.10;1.43;;;9.50;99.90;;;;;;5052239;28;20558;-74
2023/12/24 01:46:57;;;;;;;3.33;1.87;;;9.50;99.90;;;;;;5047252;28;20905;-74
2023/12/24 01:49:24;;;;;;;7.00;1.47;;;9.60;99.90;;;;;;5056426;28;20506;-75
2023/12/24 01:51:51;;;;;;;1.80;1.50;;;9.60;99.90;;;;;;5046674;28;20612;-72
2023/12/24 01:54:19;;;;;;;1.80;1.20;;;9.50;99.90;;;;;;5043977;28;21190;-73
2023/12/24 01:56:46;;;;;;;8.00;1.77;;;9.50;99.90;;;;;;5043842;28;21006;-75
2023/12/24 01:59:14;;;;;;;2.77;1.50;;;9.50;99.90;;;;;;5044264;28;20565;-74
2023/12/24 02:01:43;;;;;;;2.77;1.47;;;9.50;99.90;;;;;;5047954;28;20558;-79
2023/12/24 02:04:10;;;;;;;6.33;1.50;;;9.50;99.90;;;;;;5050949;28;20892;-75
2023/12/24 02:06:40;;;;;;;9.93;1.90;;;9.50;99.90;;;;;;5055624;28;20482;-74
2023/12/24 02:09:07;;;;;;;7.70;2.63;;;9.40;99.90;;;;;;5027385;28;20578;-72
2023/12/24 02:11:34;;;;;;;1.87;1.30;;;9.40;99.90;;;;;;5049946;28;20558;-73
2023/12/24 02:14:02;;;;;;;1.80;1.03;;;9.50;99.90;;;;;;5045234;28;20624;-75
2023/12/24 02:16:35;;;;;;;5.10;2.00;;;9.50;99.90;;;;;;5050890;28;20475;-73
2023/12/24 02:19:13;;;;;;;8.93;1.83;;;9.60;99.90;;;;;;5039305;28;20543;-78
2023/12/24 02:21:41;;;;;;;3.97;1.27;;;9.50;99.90;;;;;;5022781;28;20518;-77
2023/12/24 02:24:08;;;;;;;12.03;1.83;;;9.60;99.90;;;;;;5045076;28;20567;-73
2023/12/24 02:26:39;;;;;;;2.63;1.77;;;9.60;99.90;;;;;;5024096;28;20641;-74
2023/12/24 02:29:12;;;;;;;2.50;1.33;;;9.60;99.90;;;;;;5035437;28;20722;-75
2023/12/24 02:31:46;;;;;;;2.37;1.40;;;9.70;99.90;;;;;;5041168;28;20512;-74
2023/12/24 02:34:18;;;;;;;1.87;1.17;;;9.70;99.90;;;;;;5037388;28;20931;-77
2023/12/24 02:36:48;;;;;;;13.67;3.00;;;9.80;99.90;;;;;;5034676;28;20506;-75
2023/12/24 02:39:15;;;;;;;2.10;1.80;;;9.70;99.90;;;;;;5049491;28;20509;-72
2023/12/24 02:41:42;;;;;;;2.10;1.03;;;9.60;99.90;;;;;;5060764;28;20551;-75
2023/12/24 02:44:10;;;;;;;6.70;1.77;;;9.70;99.90;;;;;;5050180;28;20940;-76
2023/12/24 02:46:36;;;;;;;14.83;2.23;;;9.70;99.90;;;;;;5031059;28;20483;-73
2023/12/24 02:49:03;;;;;;;1.83;1.13;;;9.80;99.90;;;;;;5047613;28;20569;-72
2023/12/24 02:51:30;;;;;;;1.80;1.10;;;9.90;99.90;;;;;;5040408;28;20500;-74
2023/12/24 02:53:58;;;;;;;1.90;1.03;;;9.90;99.90;;;;;;5041998;28;20471;-73
2023/12/24 02:56:25;;;;;;;2.27;0.90;;;9.90;99.90;;;;;;5041097;28;21359;-72
2023/12/24 02:58:52;;;;;;;2.37;1.37;;;9.90;99.90;;;;;;5038188;28;20576;-74
2023/12/24 03:01:18;;;;;;;2.87;1.50;;;9.90;99.90;;;;;;5029828;28;20517;-76
2023/12/24 03:03:45;;;;;;;2.63;0.90;;;10.00;99.90;;;;;;5052771;28;20590;-75
2023/12/24 03:06:12;;;;;;;6.37;1.57;;;10.00;99.90;;;;;;5042165;28;20570;-73
2023/12/24 03:08:39;;;;;;;3.30;1.30;;;10.00;99.90;;;;;;5037297;28;20529;-78
2023/12/24 03:11:07;;;;;;;18.97;2.37;;;9.90;99.90;;;;;;5040762;28;20922;-72
2023/12/24 03:13:34;;;;;;;2.50;1.40;;;9.90;99.90;;;;;;5039096;28;20569;-73
2023/12/24 03:16:00;;;;;;;4.90;1.40;;;9.90;99.90;;;;;;5028725;28;20518;-74
2023/12/24 03:18:27;;;;;;;4.97;1.70;;;9.80;99.90;;;;;;5059991;28;20510;-75
2023/12/24 03:20:54;;;;;;;1.70;0.90;;;9.60;99.90;;;;;;5035590;28;20511;-74
2023/12/24 03:23:21;;;;;;;1.70;0.97;;;9.60;99.90;;;;;;5049624;28;20932;-78
2023/12/24 03:25:48;;;;;;;9.43;2.60;;;9.30;99.90;;;;;;5034550;28;21062;-74
2023/12/24 03:28:16;;;;;;;1.70;1.10;;;9.40;99.90;;;;;;5049130;28;20853;-74
2023/12/24 03:30:43;;;;;;;2.20;1.83;;;9.30;99.90;;;;;;5045283;28;21361;-78
2023/12/24 03:33:10;;;;;;;7.33;1.57;;;9.30;99.90;;;;;;5051845;28;20483;-76
2023/12/24 03:35:37;;;;;;;3.53;1.40;;;9.30;99.90;;;;;;5016287;28;20483;-78
2023/12/24 03:38:04;;;;;;;3.40;1.50;;;9.30;99.90;;;;;;5028263;28;20569;-80
2023/12/24 03:40:31;;;;;;;1.87;1.33;;;9.30;99.90;;;;;;5035512;28;20910;-76
2023/12/24 03:42:58;;;;;;;2.30;1.77;;;9.20;99.90;;;;;;5040338;28;20563;-71
2023/12/24 03:45:26;;;;;;;19.30;2.83;;;9.10;99.90;;;;;;5038120;28;20523;-79
2023/12/24 03:47:53;;;;;;;2.93;2.00;;;9.10;99.90;;;;;;5037497;28;20478;-73
2023/12/24 03:50:19;;;;;;;2.23;1.60;;;9.10;99.90;;;;;;5024813;28;20556;-77
2023/12/24 03:52:46;;;;;;;2.63;2.43;;;9.10;99.90;;;;;;5048648;28;20499;-73
2023/12/24 03:55:13;;;;;;;2.53;1.57;;;8.90;99.90;;;;;;5034284;28;20466;-73
2023/12/24 03:57:40;;;;;;;3.50;1.90;;;9.20;99.90;;;;;;5039699;28;20602;-76
2023/12/24 04:00:09;;;;;;;8.80;2.23;;;9.10;99.90;;;;;;5043708;28;20515;-73
2023/12/24 04:02:37;;;;;;;2.57;1.40;;;9.10;99.90;;;;;;5042351;28;20534;-75
2023/12/24 04:05:04;;;;;;;2.00;1.53;;;9.10;99.90;;;;;;5018949;28;20767;-74
2023/12/24 04:07:32;;;;;;;9.80;3.70;;;9.00;99.90;;;;;;5046463;28;20883;-74
2023/12/24 04:09:59;;;;;;;2.30;2.00;;;9.00;99.90;;;;;;5043453;28;21146;-80
2023/12/24 04:12:26;;;;;;;2.17;1.93;;;9.00;99.90;;;;;;5050412;28;20581;-73
2023/12/24 04:14:52;;;;;;;2.90;2.57;;;9.00;99.90;;;;;;5042465;28;20557;-73
2023/12/24 04:17:19;;;;;;;3.00;2.67;;;9.10;99.90;;;;;;5030923;28;20536;-72
2023/12/24 04:19:47;;;;;;;11.73;2.60;;;9.00;99.90;;;;;;5060254;28;20563;-77
2023/12/24 04:22:14;;;;;;;3.67;3.37;;;9.00;99.90;;;;;;5040660;28;20915;-74
2023/12/24 04:24:41;;;;;;;15.00;3.30;;;8.90;99.90;;;;;;5052985;28;20644;-73
2023/12/24 04:27:08;;;;;;;5.83;3.00;;;9.00;99.90;;;;;;5051426;28;20475;-80
2023/12/24 04:29:35;;;;;;;3.00;2.80;;;9.10;99.90;;;;;;5028971;28;20923;-73
2023/12/24 04:32:02;;;;;;;7.03;2.37;;;9.10;99.90;;;;;;5052916;28;20545;-76
2023/12/24 04:34:29;;;;;;;19.47;3.93;;;9.10;99.90;;;;;;5035172;28;20498;-73
2023/12/24 04:36:57;;;;;;;3.13;2.83;;;9.10;99.90;;;;;;5052032;28;20489;-74
2023/12/24 04:39:24;;;;;;;4.07;3.57;;;9.20;99.90;;;;;;5045042;28;20530;-73
2023/12/24 04:41:51;;;;;;;6.63;3.43;;;9.20;99.90;;;;;;5046691;28;20478;-72
2023/12/24 04:44:21;;;;;;;5.53;4.00;;;9.10;99.90;;;;;;5051692;28;21033;-75
2023/12/24 04:46:48;;;;;;;4.10;3.40;;;9.20;99.90;;;;;;5029544;28;20482;-78
2023/12/24 04:49:15;;;;;;;3.47;3.17;;;9.20;99.90;;;;;;5031212;28;20597;-73
2023/12/24 04:51:48;;;;;;;4.37;3.30;;;9.30;99.90;;;;;;5074835;28;20477;-73
2023/12/24 04:54:16;;;;;;;16.93;4.30;;;9.20;99.90;;;;;;4995460;28;20566;-73
2023/12/24 04:56:43;;;;;;;6.37;5.77;;;9.10;99.90;;;;;;5038359;28;20576;-76
2023/12/24 04:59:10;;;;;;;4.50;3.70;;;9.10;99.90;;;;;;5034299;28;20504;-72
2023/12/24 05:01:36;;;;;;;3.97;3.57;;;9.20;99.90;;;;;;5040210;28;20476;-79
2023/12/24 05:04:04;;;;;;;3.13;2.83;;;9.20;99.90;;;;;;5034957;28;20566;-79
2023/12/24 05:06:30;;;;;;;3.17;2.87;;;9.20;99.90;;;;;;5021346;28;20993;-71
2023/12/24 05:08:57;;;;;;;6.40;2.40;;;9.30;99.90;;;;;;5042015;28;20572;-77
2023/12/24 05:11:25;;;;;;;2.53;2.33;;;9.30;99.90;;;;;;5043896;28;20594;-71
2023/12/24 05:13:52;;;;;;;4.10;3.70;;;9.30;99.90;;;;;;5009059;28;20494;-73
2023/12/24 05:16:19;;;;;;;10.30;3.00;;;9.20;99.90;;;;;;5047287;28;21056;-74
2023/12/24 05:18:46;;;;;;;5.20;4.77;;;9.30;99.90;;;;;;5035046;28;20579;-72
2023/12/24 05:21:13;;;;;;;4.70;4.27;;;9.20;99.90;;;;;;5041666;28;20567;-76
2023/12/24 05:23:40;;;;;;;4.37;3.80;;;9.30;99.90;;;;;;5017338;28;20492;-75
2023/12/24 05:26:07;;;;;;;5.90;3.93;;;9.20;99.90;;;;;;5043463;28;21016;-72
2023/12/24 05:28:35;;;;;;;31.57;6.47;;;9.10;99.90;;;;;;5039968;28;20996;-74
2023/12/24 05:31:01;;;;;;;4.63;3.67;;;9.20;99.90;;;;;;5043629;28;20514;-70
2023/12/24 05:33:28;;;;;;;5.40;2.70;;;9.20;99.90;;;;;;5027654;28;20538;-74
2023/12/24 05:35:55;;;;;;;5.90;3.40;;;9.20;99.90;;;;;;5045325;28;20830;-74
2023/12/24 05:38:22;;;;;;;3.80;3.40;;;9.30;99.90;;;;;;5035349;28;21251;-74
2023/12/24 05:40:48;;;;;;;4.30;2.73;;;9.30;99.90;;;;;;5036828;28;21258;-73
2023/12/24 05:43:15;;;;;;;10.50;2.70;;;9.40;99.90;;;;;;5042979;28;21112;-72
2023/12/24 05:45:43;;;;;;;5.37;2.63;;;9.30;99.90;;;;;;5023052;28;21261;-69
2023/12/24 05:48:10;;;;;;;4.30;3.27;;;9.50;99.90;;;;;;4998955;28;20581;-72
2023/12/24 05:50:37;;;;;;;3.10;2.63;;;9.40;99.90;;;;;;5036440;28;20627;-75
2023/12/24 05:53:04;;;;;;;5.83;3.07;;;9.40;99.90;;;;;;5053732;28;20560;-72
2023/12/24 05:55:31;;;;;;;4.23;3.93;;;9.30;99.90;;;;;;5056018;28;20974;-72
2023/12/24 05:57:58;;;;;;;12.10;2.40;;;9.30;99.90;;;;;;5042624;28;20611;-72
2023/12/24 06:00:24;;;;;;;4.70;2.33;;;9.30;99.90;;;;;;5049077;28;20827;-76
2023/12/24 06:02:52;;;;;;;6.47;2.03;;;9.30;99.90;;;;;;5033655;28;20554;-70
2023/12/24 06:05:20;;;;;;;3.10;2.53;;;9.30;99.90;;;;;;5029044;28;21013;-71
2023/12/24 06:07:47;;;;;;;3.00;2.70;;;;;;;;;;5046143;28;20514;-71
2023/12/24 06:10:14;;;;;;;25.03;2.97;;;9.30;99.90;;;;;;5042032;28;21333;-73
2023/12/24 06:12:41;;;;;;;4.10;2.70;;;9.30;99.90;;;;;;5039152;28;20483;-74
2023/12/24 06:15:09;;;;;;;5.10;4.10;;;9.20;99.90;;;;;;5057710;28;20565;-74
2023/12/24 06:17:36;;;;;;;20.33;3.13;;;9.30;99.90;;;;;;5036115;28;20489;-73
2023/12/24 06:20:05;;;;;;;10.10;3.83;;;9.20;99.90;;;;;;5041213;28;20545;-70
2023/12/24 06:22:32;;;;;;;1.70;1.20;;;9.10;99.90;;;;;;5051768;28;20589;-71
2023/12/24 06:24:59;;;;;;;3.93;2.40;;;9.30;99.90;;;;;;5043181;28;20581;-72
2023/12/24 06:27:26;;;;;;;2.87;2.67;;;9.30;99.90;;;;;;5045314;28;20502;-75
2023/12/24 06:29:52;;;;;;;3.20;2.90;;;9.20;99.90;;;;;;5059689;28;20573;-72
2023/12/24 06:32:19;;;;;;;3.37;3.07;;;9.20;99.90;;;;;;5043311;28;20555;-71
2023/12/24 06:34:47;;;;;;;5.53;3.20;;;9.20;99.90;;;;;;5032391;28;20562;-75
2023/12/24 06:37:15;;;;;;;2.83;2.23;;;9.20;99.90;;;;;;5046292;28;20485;-79
2023/12/24 06:39:42;;;;;;;10.67;2.60;;;9.20;99.90;;;;;;5035014;28;20513;-74
2023/12/24 06:42:09;;;;;;;2.60;1.97;;;9.20;99.90;;;;;;5062248;28;21084;-76
2023/12/24 06:44:36;;;;;;;7.73;2.13;;;9.20;99.90;;;;;;5020045;28;20494;-75
2023/12/24 06:47:03;;;;;;;3.23;2.93;;;9.10;99.90;;;;;;5040851;28;20886;-77
2023/12/24 06:49:30;;;;;;;2.50;2.30;;;9.00;99.90;;;;;;5035955;28;20551;-72
2023/12/24 06:51:57;;;;;;;13.87;4.23;;;9.00;99.90;;;;;;5039808;28;20508;-71
2023/12/24 06:54:25;;;;;;;5.43;2.43;;;9.00;99.90;;;;;;5032468;28;20583;-75
2023/12/24 06:56:52;;;;;;;2.17;1.77;;;9.00;99.90;;;;;;5035367;28;21107;-74
2023/12/24 06:59:18;;;;;;;1.80;1.30;;;9.00;99.90;;;;;;5041320;28;21237;-79
2023/12/24 07:01:45;;;;;;;6.63;2.30;;;9.10;99.90;;;;;;5033757;28;20921;-73
2023/12/24 07:04:12;;;;;;;4.73;2.03;;;9.00;99.90;;;;;;5039055;28;20544;-70
2023/12/24 07:06:38;;;;;;;2.43;1.47;;;;;;;;;;5006142;28;20602;-73
2023/12/24 07:09:07;;;;;;;2.70;1.93;;;9.00;99.90;;;;;;5052240;28;20475;-72
2023/12/24 07:11:35;;;;;;;4.47;3.07;;;9.10;99.90;;;;;;5036665;28;20479;-72
2023/12/24 07:14:03;;;;;;;14.43;1.90;;;9.10;99.90;;;;;;5015449;28;20503;-74
2023/12/24 07:16:29;;;;;;;2.43;1.90;;;9.10;99.90;;;;;;5029510;28;20548;-77
2023/12/24 07:18:57;;;;;;;26.57;3.63;;;9.10;99.90;;;;;;5047253;28;20577;-71
2023/12/24 07:21:24;;;;;;;2.10;1.67;;;9.10;99.90;;;;;;5036986;28;20510;-71
2023/12/24 07:23:51;;;;;;;2.10;1.90;;;9.30;99.90;;;;;;5037489;28;20822;-74
2023/12/24 07:26:17;;;;;;;5.20;1.87;;;9.30;99.90;;;;;;5037211;28;20578;-75
2023/12/24 07:28:46;;;;;;;6.27;1.97;;;9.30;99.90;;;;;;5033473;28;20582;-72
2023/12/24 07:31:14;;;;;;;2.40;2.20;;;9.30;99.90;;;;;;5035108;28;20621;-73
2023/12/24 07:33:41;;;;;;;4.43;1.70;;;9.40;99.90;;;;;;5033475;28;20487;-74
2023/12/24 07:36:09;;;;;;;2.90;2.63;;;9.40;99.90;;;;;;5011882;28;20993;-75
2023/12/24 07:38:35;;;;;;;2.37;2.00;;;9.30;99.90;;;;;;5044922;28;20902;-72
2023/12/24 07:41:03;;;;;;;3.07;2.87;;;9.30;99.90;;;;;;5010443;28;21222;-77
2023/12/24 07:43:30;;;;;;;2.83;2.53;;;9.30;99.90;;;;;;5035114;28;20486;-70
2023/12/24 07:45:58;;;;;;;3.53;3.23;;;9.30;99.90;;;;;;5043656;28;21087;-73
2023/12/24 07:48:25;;;;;;;5.33;2.70;;;9.20;99.90;;;;;;5037612;28;20861;-76
2023/12/24 07:50:52;;;;;;;3.20;1.93;;;9.20;99.90;;;;;;5014753;28;20571;-71
2023/12/24 07:53:19;;;;;;;15.20;4.17;;;9.30;99.90;;;;;;5050375;28;20870;-73
2023/12/24 07:55:46;;;;;;;6.03;1.70;;;9.30;99.90;;;;;;5039293;28;20479;-70
2023/12/24 07:58:13;;;;;;;1.80;1.20;;;9.40;99.90;;;;;;5041082;28;20552;-73
2023/12/24 08:00:39;;;;;;;9.00;2.40;;;9.30;99.90;;;;;;5017817;28;20522;-73
2023/12/24 08:03:07;;;;;;;1.83;1.27;;;9.40;99.90;;;;;;5052636;28;20518;-70
2023/12/24 08:05:34;;;;;;;2.20;1.60;;;9.40;99.90;;;;;;5026752;28;20559;-74
2023/12/24 08:08:02;;;;;;;8.57;1.40;;;9.40;99.90;;;;;;5048835;28;20503;-70
2023/12/24 08:10:28;;;;;;;1.93;1.30;;;9.40;99.90;;;;;;5036822;28;20486;-70
2023/12/24 08:12:55;;;;;;;2.10;1.67;;;9.50;99.90;;;;;;5038682;28;20576;-78
2023/12/24 08:15:22;;;;;;;7.13;1.70;;;9.50;99.90;;;;;;5026916;28;20554;-70
2023/12/24 08:17:49;;;;;;;1.70;1.10;;;9.50;99.90;;;;;;5024017;28;20983;-71
2023/12/24 08:20:21;;;;;;;7.63;1.30;;;9.40;99.90;;;;;;5029752;28;20558;-72
2023/12/24 08:22:49;;;;;;;2.00;1.50;;;9.40;99.90;;;;;;5039573;28;20480;-71
2023/12/24 08:25:16;;;;;;;2.00;1.13;;;9.40;99.90;;;;;;5031235;28;20885;-72
2023/12/24 08:27:43;;;;;;;12.40;1.63;;;9.60;99.90;;;;;;5032959;28;20491;-69
2023/12/24 08:30:11;;;;;;;7.00;1.60;;;9.60;99.90;;;;;;5029749;28;20573;-69
2023/12/24 08:32:38;;;;;;;1.53;0.80;;;9.50;99.90;;;;;;5044724;28;21005;-73
2023/12/24 08:35:05;;;;;;;11.53;2.33;;;9.60;99.90;;;;;;5010256;28;21092;-72
2023/12/24 08:37:35;;;;;;;1.60;0.90;;;9.70;99.90;;;;;;5046044;28;20562;-72
2023/12/24 08:40:03;;;;;;;4.23;1.00;;;9.70;99.90;;;;;;5019032;28;20530;-73
2023/12/24 08:42:29;;;;;;;2.10;1.20;;;9.80;99.90;;;;;;5037068;28;20492;-71
2023/12/24 08:44:56;;;;;;;2.00;1.63;;;9.80;99.90;;;;;;5031818;28;21045;-68
2023/12/24 08:47:23;;;;;;;3.10;2.37;;;9.70;99.90;;;;;;5021900;28;20488;-74
2023/12/24 08:49:50;;;;;;;2.03;1.83;;;;;;;;;;5032618;28;20574;-68
2023/12/24 08:52:17;;;;;;;3.90;2.17;;;9.60;99.90;;;;;;5042008;28;20551;-74
2023/12/24 08:54:44;;;;;;;2.00;1.53;;;9.60;99.90;;;;;;5018456;28;20537;-73
2023/12/24 08:57:11;;;;;;;18.00;2.00;;;9.70;99.90;;;;;;5048646;28;20597;-71
2023/12/24 08:59:38;;;;;;;1.77;1.53;;;9.60;99.90;;;;;;5042009;28;20873;-79
2023/12/24 09:02:05;;;;;;;13.57;2.07;;;9.60;99.90;;;;;;5046048;28;20525;-70
2023/12/24 09:04:32;;;;;;;1.80;1.27;;;9.50;99.90;;;;;;5035989;28;20886;-75
2023/12/24 09:06:59;;;;;;;1.90;1.63;;;9.50;99.90;;;;;;5039755;28;20582;-79
2023/12/24 09:09:26;;;;;;;15.60;2.40;;;9.60;99.90;;;;;;5007031;28;20733;-74
2023/12/24 09:11:54;;;;;;;1.90;1.10;;;9.60;99.90;;;;;;5050733;28;20569;-76
2023/12/24 09:14:24;;;;;;;1.80;0.93;;;9.40;99.90;;;;;;5039126;28;20557;-74
2023/12/24 09:16:50;;;;;;;5.73;1.30;;;9.50;99.90;;;;;;5034772;28;20509;-71
2023/12/24 09:19:17;;;;;;;1.90;1.20;;;9.50;99.90;;;;;;5036101;28;20912;-71
2023/12/24 09:21:44;;;;;;;1.70;1.00;;;9.60;99.90;;;;;;5056069;28;20954;-72
2023/12/24 09:24:11;;;;;;;7.90;1.73;;;9.60;99.90;;;;;;5041187;28;20906;-70
2023/12/24 09:26:37;;;;;;;2.30;1.53;;;9.70;99.90;;;;;;5018384;28;20921;-73
2023/12/24 09:29:05;;;;;;;2.17;1.20;;;9.70;99.90;;;;;;5033383;28;20588;-71
2023/12/24 09:31:32;;;;;;;1.73;1.00;;;9.80;99.90;;;;;;5012652;28;21003;-72
2023/12/24 09:33:59;;;;;;;1.60;0.90;;;9.70;99.90;;;;;;5030142;28;21109;-72
2023/12/24 09:36:26;;;;;;;33.50;2.90;;;9.80;99.90;;;;;;5044872;28;20902;-74
2023/12/24 09:38:53;;;;;;;1.80;1.43;;;9.80;99.90;;;;;;5055090;28;20491;-70
2023/12/24 09:41:20;;;;;;;7.47;1.47;;;9.60;99.90;;;;;;5019843;28;20503;-71
2023/12/24 09:43:47;;;;;;;11.73;1.90;;;9.70;99.90;;;;;;5040263;28;20497;-76
2023/12/24 09:46:15;;;;;;;6.33;0.90;;;9.70;99.90;;;;;;5038745;28;20582;-72
2023/12/24 09:48:43;;;;;;;1.50;0.80;;;9.60;99.90;;;;;;5044573;28;20475;-79
2023/12/24 09:51:10;;;;;;;8.87;1.57;;;9.70;99.90;;;;;;5031083;28;20476;-72
2023/12/24 09:53:36;;;;;;;1.50;0.60;;;9.70;99.90;;;;;;5050112;28;21056;-71
2023/12/24 09:56:03;;;;;;;3.97;0.70;;;9.60;99.90;;;;;;5034012;28;20573;-71
2023/12/24 09:58:30;;;;;;;5.67;1.00;;;9.70;99.90;;;;;;5061357;28;20508;-76
2023/12/24 10:00:57;;;;;;;1.93;0.87;;;9.60;99.90;;;;;;5033839;28;20479;-75
2023/12/24 10:03:25;;;;;;;1.50;0.80;;;9.50;99.90;;;;;;5008293;28;20494;-74
2023/12/24 10:06:03;;;;;;;4.90;0.70;;;9.70;99.90;;;;;;5035828;28;20557;-71
2023/12/24 10:08:31;;;;;;;1.40;0.60;;;9.60;99.90;;;;;;5044497;28;20478;-70
2023/12/24 10:10:58;;;;;;;8.40;1.27;;;9.70;99.90;;;;;;5026680;28;20541;-75
2023/12/24 10:13:25;;;;;;;2.87;0.70;;;9.70;99.90;;;;;;5026092;28;20933;-71
2023/12/24 10:16:04;;;;;;;4.03;0.90;;;9.70;99.90;;;;;;5043256;28;20478;-72
2023/12/24 10:18:33;;;;;;;1.50;0.80;;;9.80;99.90;;;;;;5060372;28;20988;-76
2023/12/24 10:21:05;;;;;;;6.13;1.00;;;9.80;99.90;;;;;;5040222;28;20530;-70
2023/12/24 10:23:32;;;;;;;1.53;0.90;;;9.80;99.90;;;;;;5050762;28;20495;-74
2023/12/24 10:26:03;;;;;;;2.83;0.70;;;9.90;99.90;;;;;;5003904;28;20478;-69
2023/12/24 10:28:30;;;;;;;1.40;0.60;;;9.90;99.90;;;;;;5060852;28;20501;-73
2023/12/24 10:31:07;;;;;;;1.63;0.70;;;9.90;99.90;;;;;;5054146;28;20471;-74
2023/12/24 10:33:35;;;;;;;19.60;1.63;;;9.90;99.90;;;;;;5051537;28;20961;-71
2023/12/24 10:36:02;;;;;;;1.60;0.80;;;9.90;99.90;;;;;;5050306;28;20564;-72
2023/12/24 10:38:29;;;;;;;21.50;1.77;;;9.80;99.90;;;;;;5048546;28;21162;-73
2023/12/24 10:40:55;;;;;;;1.50;0.70;;;9.90;99.90;;;;;;5040961;28;20589;-74
2023/12/24 10:43:22;;;;;;;1.50;0.60;;;9.80;99.90;;;;;;5051820;28;20560;-74
2023/12/24 10:45:49;;;;;;;3.00;1.00;;;9.80;99.90;;;;;;5053840;28;20240;-69
2023/12/24 10:48:16;;;;;;;1.50;0.80;;;9.90;99.90;;;;;;5041880;28;21043;-75
2023/12/24 10:50:44;;;;;;;1.50;0.80;;;9.90;99.90;;;;;;5035728;28;20503;-73
2023/12/24 10:53:13;;;;;;;6.23;1.10;;;10.00;99.90;;;;;;5045962;28;20556;-75
2023/12/24 10:55:42;;;;;;;5.53;0.90;;;10.10;99.90;;;;;;5037585;28;20486;-74
2023/12/24 10:58:16;;;;;;;1.60;0.77;;;10.10;99.90;;;;;;5051388;28;20891;-73
2023/12/24 11:00:43;;;;;;;1.53;0.73;;;10.10;99.90;;;;;;5034731;28;20539;-73
2023/12/24 11:03:10;;;;;;;1.57;0.80;;;10.10;99.90;;;;;;5041551;28;20569;-71
2023/12/24 11:05:51;;;;;;;5.93;1.33;;;10.10;99.90;;;;;;5042456;28;20569;-70
2023/12/24 11:08:29;;;;;;;6.60;0.93;;;10.10;99.90;;;;;;5025745;28;20475;-71
2023/12/24 11:10:56;;;;;;;1.80;1.07;;;10.00;99.90;;;;;;5042760;28;20515;-70
2023/12/24 11:13:46;;;;;;;7.80;1.10;;;10.10;99.90;;;;;;5033865;28;20543;-72
2023/12/24 11:16:13;;;;;;;1.50;0.70;;;10.10;99.90;;;;;;5027039;28;20569;-73
2023/12/24 11:18:42;;;;;;;2.37;0.90;;;10.10;99.90;;;;;;5048718;28;20833;-70
2023/12/24 11:21:12;;;;;;;8.00;1.23;;;10.20;99.90;;;;;;4999760;28;20932;-72
2023/12/24 11:23:40;;;;;;;1.50;0.60;;;10.20;99.90;;;;;;5033043;28;20486;-71
2023/12/24 11:26:31;;;;;;;1.50;0.70;;;10.20;99.90;;;;;;5056452;28;20477;-71
2023/12/24 11:28:58;;;;;;;1.47;0.70;;;10.20;99.90;;;;;;5048594;28;20630;-70
2023/12/24 11:31:26;;;;;;;7.37;1.07;;;10.10;99.90;;;;;;5041786;28;20514;-73
2023/12/24 11:33:55;;;;;;;7.30;1.20;;;10.10;99.90;;;;;;5018526;28;20557;-72
2023/12/24 11:36:26;;;;;;;1.80;1.00;;;10.20;99.90;;;;;;5037409;28;20481;-73
2023/12/24 11:38:57;;;;;;;1.50;0.70;;;10.30;99.90;;;;;;5022821;28;20475;-72
2023/12/24 11:41:25;;;;;;;5.93;1.33;;;10.30;99.90;;;;;;5028364;28;21015;-71
2023/12/24 11:43:54;;;;;;;1.80;0.87;;;10.20;99.90;;;;;;5044813;28;20567;-70
2023/12/24 11:46:22;;;;;;;1.60;0.77;;;10.30;99.90;;;;;;5032277;28;21211;-71
2023/12/24 11:48:49;;;;;;;1.50;0.80;;;10.30;99.90;;;;;;5027705;28;20487;-72
2023/12/24 11:51:16;;;;;;;3.10;0.80;;;10.20;99.90;;;;;;5028064;28;20575;-76
2023/12/24 11:53:45;;;;;;;2.47;0.63;;;10.30;99.90;;;;;;5012275;28;20503;-73
2023/12/24 11:56:15;;;;;;;18.50;1.63;;;10.20;99.90;;;;;;5030656;28;20924;-72
2023/12/24 11:58:56;;;;;;;2.73;0.60;;;10.30;99.90;;;;;;5051445;28;20989;-73
2023/12/24 12:01:29;;;;;;;7.60;0.97;;;10.30;99.90;;;;;;5052418;28;20904;-71
2023/12/24 12:03:58;;;;;;;1.50;0.70;;;10.30;99.90;;;;;;5036522;28;20506;-71
2023/12/24 12:06:28;;;;;;;2.13;0.80;;;10.20;99.90;;;;;;5054214;28;20479;-74
2023/12/24 12:08:57;;;;;;;7.23;1.20;;;10.10;99.90;;;;;;5057582;28;20614;-73
2023/12/24 12:11:24;;;;;;;2.07;1.60;;;10.10;99.90;;;;;;5030242;28;20759;-69
2023/12/24 12:13:51;;;;;;;1.60;0.70;;;10.20;99.90;;;;;;5036781;28;20487;-72
2023/12/24 12:16:18;;;;;;;5.83;1.33;;;10.30;99.90;;;;;;5035319;28;20528;-69
2023/12/24 12:18:44;;;;;;;2.10;1.57;;;10.20;99.90;;;;;;5040718;28;20995;-71
2023/12/24 12:21:11;;;;;;;1.50;0.80;;;10.30;99.90;;;;;;5040407;28;20588;-71
2023/12/24 12:23:38;;;;;;;5.70;1.00;;;10.30;99.90;;;;;;5039232;28;20485;-74
2023/12/24 12:26:07;;;;;;;2.00;0.90;;;10.40;99.90;;;;;;5042088;28;20490;-74
2023/12/24 12:28:35;;;;;;;22.43;2.23;;;10.30;99.90;;;;;;5052532;28;20888;-74
2023/12/24 12:31:02;;;;;;;25.87;1.80;;;10.30;99.90;;;;;;5028789;28;20510;-74
2023/12/24 12:33:29;;;;;;;1.50;0.83;;;10.40;99.90;;;;;;5063264;28;20817;-71
2023/12/24 12:35:56;;;;;;;1.60;0.87;;;10.30;99.90;;;;;;5030687;28;22619;-74
2023/12/24 12:38:23;;;;;;;1.57;0.70;;;10.40;99.90;;;;;;5046691;28;20482;-74
2023/12/24 12:40:51;;;;;;;1.80;0.93;;;10.30;99.90;;;;;;5059324;28;20964;-75
2023/12/24 12:43:20;;;;;;;5.63;0.90;;;10.30;99.90;;;;;;5045031;28;20654;-71
2023/12/24 12:45:47;;;;;;;1.60;0.77;;;10.30;99.90;;;;;;5036865;28;20482;-70
2023/12/24 12:48:14;;;;;;;4.23;1.07;;;10.30;99.90;;;;;;5057660;28;20494;-73
2023/12/24 12:50:41;;;;;;;7.60;1.47;;;10.40;99.90;;;;;;5056677;28;20847;-72
2023/12/24 12:53:11;;;;;;;1.47;0.60;;;10.40;99.90;;;;;;5029949;28;20945;-72
2023/12/24 12:55:38;;;;;;;1.60;0.90;;;10.40;99.90;;;;;;5033402;28;21042;-74
2023/12/24 12:58:13;;;;;;;4.70;1.10;;;10.40;99.90;;;;;;5044448;28;20806;-76